KCRW METAR and TAF | Updated Today

KCRW METAR

Yeager Airport

Observation time: 22 min. ago

KCRW 301954Z 26013G21KT 10SM SCT045 08/M03 A3007 RMK AO2 PK WND 27031/1905 SLP182 T00781033

Need help? Read our tutorial on how to read METARs or read the parsed version below.

Yeager Airport (KCRW) METAR

  • Weather conditions on Wed, 30 Nov 2022 19:54:00 +0000 (22 min. ago):
  • Present conditions: Dry
  • Clouds: Scattered at 1372 meters
  • Visibility: 16093 meters
  • Wind: 260 degrees at 13 knots
  • Temperature: 8 celsius
  • Dew point: -3 celsius
  • Pressure: 30.07 inHg
  • Remarks: AO2 PK WND 27031/1905 SLP182 T00781033


Useful to know...

KCRW TAF

Yeager Airport

KCRW 301746Z 3018/0118 27012G24KT P6SM FEW030 FM010000 27009G17KT P6SM FEW035 FM010700 26008KT P6SM SCT025
Observation time: 2:30 hr. ago
Need help? Read our tutorial on how to read TAFs or read the parsed version below.

Parsed version of TAF for Yeager Airport (KCRW)

  • From 30 November at 18:00 UTC, to day 01 of the month at 18:00 UTC
  • Clouds: A few at 914 meters
  • Wind: 270 degrees at 12
  • From day 1 of the month at 00:00 UTC
  • Clouds: A few at 1067 meters
  • Wind: 270 degrees at 9
  • From day 1 of the month at 07:00 UTC
  • Clouds: Scattered at 762 meters
  • Wind: 260 degrees at 8